Time;durP1;ratioP1;P1;durP2;ratioP2;P2;SDS_P1;SDS_P2;PMS_P1;PMS_P2;Temp;Humidity;BMP_temperature;BMP_pressure;BME280_temperature;BME280_humidity;BME280_pressure;Samples;Min_cycle;Max_cycle;Signal;HPM_P1;HPM_P2
2021/04/21 00:00:12;;;;;;;12.77;9.90;;;7.10;77.30;;;;;;5054911;28;20616;-84
2021/04/21 00:02:40;;;;;;;13.47;10.40;;;7.10;76.80;;;;;;5053089;28;20204;-85
2021/04/21 00:05:07;;;;;;;15.23;10.97;;;7.10;76.20;;;;;;5054968;28;20176;-85
2021/04/21 00:07:35;;;;;;;17.67;11.80;;;7.10;75.40;;;;;;5053668;28;20253;-85
2021/04/21 00:10:03;;;;;;;17.43;11.20;;;7.10;75.00;;;;;;5054758;28;20192;-84
2021/04/21 00:12:30;;;;;;;16.67;11.40;;;7.10;74.70;;;;;;5054830;28;20168;-84
2021/04/21 00:14:56;;;;;;;21.80;11.57;;;7.10;73.80;;;;;;5054687;28;20246;-84
2021/04/21 00:17:23;;;;;;;18.63;10.80;;;7.10;73.50;;;;;;5055017;28;20176;-85
2021/04/21 00:19:54;;;;;;;16.20;10.60;;;7.00;73.40;;;;;;5054584;28;20206;-85
2021/04/21 00:22:21;;;;;;;15.57;10.70;;;7.00;73.10;;;;;;5053375;28;20172;-84
2021/04/21 00:24:50;;;;;;;14.20;10.57;;;7.00;73.70;;;;;;5053365;28;20179;-84
2021/04/21 00:27:17;;;;;;;16.03;10.30;;;7.00;74.00;;;;;;5053264;28;20176;-84
2021/04/21 00:29:49;;;;;;;14.00;10.63;;;6.90;73.30;;;;;;5054433;28;20237;-84
2021/04/21 00:32:17;;;;;;;17.10;10.97;;;6.90;73.30;;;;;;5053253;28;20263;-85
2021/04/21 00:34:44;;;;;;;21.37;11.10;;;6.80;73.00;;;;;;5053034;28;20248;-85
2021/04/21 00:37:12;;;;;;;21.43;11.40;;;6.80;73.20;;;;;;5054330;28;20171;-85
2021/04/21 00:39:41;;;;;;;14.93;11.23;;;6.80;72.90;;;;;;5054549;28;20287;-85
2021/04/21 00:42:26;;;;;;;15.43;11.67;;;6.80;73.20;;;;;;5053016;28;20546;-84
2021/04/21 00:44:58;;;;;;;21.17;10.97;;;6.70;74.60;;;;;;5052902;28;20171;-85
2021/04/21 00:47:39;;;;;;;12.37;11.03;;;6.60;74.30;;;;;;5052876;28;20723;-84
2021/04/21 00:50:16;;;;;;;18.53;11.17;;;6.60;73.70;;;;;;5054361;28;20283;-85
2021/04/21 00:52:52;;;;;;;17.60;11.20;;;6.60;73.80;;;;;;5054249;28;20622;-84
2021/04/21 00:55:22;;;;;;;23.70;11.90;;;6.50;75.40;;;;;;5053977;28;20194;-84
2021/04/21 00:57:54;;;;;;;18.53;10.63;;;6.50;74.90;;;;;;5052886;28;20176;-84
2021/04/21 01:00:23;;;;;;;17.50;10.27;;;6.40;76.20;;;;;;5054087;28;20207;-84
2021/04/21 01:02:56;;;;;;;16.60;10.63;;;6.30;77.30;;;;;;5052632;28;20190;-84
2021/04/21 01:05:29;;;;;;;18.20;10.77;;;6.20;77.70;;;;;;5054217;28;20216;-84
2021/04/21 01:08:01;;;;;;;19.00;11.43;;;6.10;77.90;;;;;;5053807;28;20163;-84
2021/04/21 01:10:41;;;;;;;18.53;11.00;;;6.10;78.50;;;;;;5052558;28;20198;-84
2021/04/21 01:13:06;;;;;;;14.73;10.47;;;6.10;78.30;;;;;;5053351;28;20527;-84
2021/04/21 01:15:35;;;;;;;16.63;9.97;;;6.20;77.90;;;;;;5051829;28;20202;-84
2021/04/21 01:18:04;;;;;;;17.13;10.40;;;6.20;77.70;;;;;;5052289;28;20179;-84
2021/04/21 01:20:35;;;;;;;17.80;10.53;;;6.20;78.50;;;;;;5052233;28;20341;-84
2021/04/21 01:23:20;;;;;;;16.97;10.87;;;6.20;78.20;;;;;;5052313;28;20163;-85
2021/04/21 01:26:10;;;;;;;16.63;11.23;;;6.20;78.80;;;;;;5053541;28;20648;-84
2021/04/21 01:28:41;;;;;;;16.70;9.73;;;6.20;79.20;;;;;;5052220;28;20171;-85
2021/04/21 01:31:11;;;;;;;17.97;11.70;;;6.20;78.60;;;;;;5052156;28;20275;-85
2021/04/21 01:33:38;;;;;;;17.13;12.17;;;6.20;78.70;;;;;;5052110;28;20169;-84
2021/04/21 01:36:06;;;;;;;17.43;11.30;;;6.20;79.00;;;;;;5053523;28;20555;-85
2021/04/21 01:38:33;;;;;;;19.10;10.90;;;6.20;79.10;;;;;;5053270;28;20247;-85
2021/04/21 01:41:06;;;;;;;21.43;10.80;;;6.30;79.40;;;;;;5051859;28;20205;-85
2021/04/21 01:43:42;;;;;;;18.33;11.70;;;6.30;78.90;;;;;;5053278;28;20174;-84
2021/04/21 01:46:09;;;;;;;16.77;11.90;;;6.30;78.40;;;;;;5052035;28;20171;-84
2021/04/21 01:48:35;;;;;;;17.03;12.03;;;6.30;79.50;;;;;;5053293;28;20175;-84
2021/04/21 01:51:14;;;;;;;17.20;10.93;;;6.20;79.70;;;;;;5053058;28;20279;-85
2021/04/21 01:54:12;;;;;;;18.07;10.20;;;6.20;79.30;;;;;;5053210;28;20186;-85
2021/04/21 01:56:52;;;;;;;22.00;12.33;;;6.20;79.40;;;;;;5051872;28;20197;-84
2021/04/21 01:59:34;;;;;;;16.17;10.70;;;6.20;78.80;;;;;;5052856;28;20206;-85
2021/04/21 02:02:19;;;;;;;16.93;11.80;;;6.30;78.20;;;;;;5051806;28;20572;-85
2021/04/21 02:05:31;;;;;;;21.87;11.83;;;6.20;78.00;;;;;;5053062;28;20173;-85
2021/04/21 02:08:22;;;;;;;14.90;11.60;;;6.20;78.20;;;;;;5011462;28;20763;-84
2021/04/21 02:10:53;;;;;;;23.63;12.17;;;6.20;77.90;;;;;;5051930;28;20201;-84
2021/04/21 02:13:25;;;;;;;16.77;11.67;;;6.20;77.90;;;;;;5053038;28;20170;-84
2021/04/21 02:16:16;;;;;;;20.37;12.03;;;6.20;77.80;;;;;;5052920;28;20199;-85
2021/04/21 02:19:23;;;;;;;19.43;12.33;;;6.20;78.20;;;;;;5051618;28;20666;-84
2021/04/21 02:21:52;;;;;;;17.03;11.93;;;6.20;78.20;;;;;;5050566;28;20593;-85
2021/04/21 02:24:49;;;;;;;16.77;11.50;;;6.20;78.10;;;;;;5051558;28;20348;-85
2021/04/21 02:27:39;;;;;;;14.50;11.33;;;6.10;78.10;;;;;;5033393;28;20195;-85
2021/04/21 02:30:25;;;;;;;19.13;12.00;;;6.10;77.60;;;;;;5056720;28;20247;-84
2021/04/21 02:33:06;;;;;;;14.03;10.40;;;6.10;77.10;;;;;;5055597;28;20174;-85
2021/04/21 02:35:49;;;;;;;24.27;13.13;;;6.10;76.80;;;;;;5055468;28;20198;-85
2021/04/21 02:38:25;;;;;;;15.83;11.80;;;6.10;77.50;;;;;;5055432;28;20185;-85
2021/04/21 02:41:15;;;;;;;18.77;11.27;;;6.10;78.10;;;;;;5055232;28;20202;-85
2021/04/21 02:43:59;;;;;;;17.90;12.03;;;6.10;77.90;;;;;;5056533;28;20282;-85
2021/04/21 02:46:44;;;;;;;24.10;12.70;;;6.10;77.50;;;;;;5055219;28;20586;-85
2021/04/21 02:49:15;;;;;;;25.97;13.17;;;6.00;77.90;;;;;;5055096;28;20174;-84
2021/04/21 02:51:46;;;;;;;19.03;12.37;;;6.00;79.00;;;;;;5055192;28;20239;-85
2021/04/21 02:54:18;;;;;;;18.03;13.07;;;5.90;79.20;;;;;;5054997;28;20553;-85
2021/04/21 02:57:08;;;;;;;21.97;13.33;;;5.80;79.60;;;;;;5056686;28;20293;-85
2021/04/21 02:59:43;;;;;;;20.27;13.77;;;5.70;79.80;;;;;;5054781;28;20214;-84
2021/04/21 03:02:13;;;;;;;17.77;13.57;;;5.70;80.30;;;;;;5054928;28;20196;-84
2021/04/21 03:04:47;;;;;;;15.97;12.50;;;5.60;81.00;;;;;;5056193;28;20249;-85
2021/04/21 03:07:40;;;;;;;16.27;12.27;;;5.60;81.00;;;;;;5056084;28;20648;-85
2021/04/21 03:10:16;;;;;;;21.37;11.70;;;5.40;81.40;;;;;;5048592;28;20691;-84
2021/04/21 03:12:57;;;;;;;19.40;11.77;;;5.50;81.50;;;;;;5056015;28;20178;-84
2021/04/21 03:15:26;;;;;;;16.50;11.53;;;5.50;80.40;;;;;;5054583;28;20232;-84
2021/04/21 03:17:55;;;;;;;14.80;10.37;;;5.60;79.50;;;;;;5054640;28;20209;-84
2021/04/21 03:20:22;;;;;;;14.57;10.33;;;5.60;79.20;;;;;;5054498;28;20684;-84
2021/04/21 03:22:53;;;;;;;13.90;10.03;;;5.60;78.70;;;;;;5054542;28;20572;-85
2021/04/21 03:25:25;;;;;;;14.53;9.53;;;5.50;78.40;;;;;;5056031;28;20184;-85
2021/04/21 03:27:54;;;;;;;13.23;9.33;;;5.50;78.20;;;;;;5055715;28;20161;-85
2021/04/21 03:30:24;;;;;;;11.87;9.37;;;5.40;77.90;;;;;;5055626;28;20229;-85
2021/04/21 03:33:08;;;;;;;13.50;10.23;;;5.30;77.70;;;;;;5055624;28;20158;-84
2021/04/21 03:35:35;;;;;;;12.40;10.10;;;5.20;77.90;;;;;;5055873;28;20226;-85
2021/04/21 03:38:09;;;;;;;12.87;9.23;;;5.10;78.00;;;;;;5054913;28;20533;-85
2021/04/21 03:40:36;;;;;;;16.77;9.83;;;5.10;77.80;;;;;;5054166;28;20199;-84
2021/04/21 03:43:03;;;;;;;12.37;10.33;;;5.00;77.70;;;;;;5054178;28;20181;-84
2021/04/21 03:45:30;;;;;;;13.90;10.47;;;5.00;77.60;;;;;;5054023;28;20242;-85
2021/04/21 03:47:57;;;;;;;14.40;10.07;;;5.00;77.50;;;;;;5055534;28;20259;-85
2021/04/21 03:50:24;;;;;;;13.13;9.97;;;5.00;77.60;;;;;;5053970;28;20244;-84
2021/04/21 03:53:05;;;;;;;14.70;11.13;;;5.00;77.60;;;;;;5055184;28;20573;-85
2021/04/21 03:55:31;;;;;;;14.13;10.23;;;5.00;77.30;;;;;;5055094;28;20197;-84
2021/04/21 03:58:01;;;;;;;12.73;10.03;;;5.00;77.20;;;;;;5055280;28;20650;-84
2021/04/21 04:00:28;;;;;;;21.17;11.17;;;4.90;77.30;;;;;;5055123;28;20263;-84
2021/04/21 04:02:58;;;;;;;17.60;11.30;;;4.90;77.10;;;;;;5053810;28;20181;-84
2021/04/21 04:05:34;;;;;;;14.60;11.40;;;4.90;77.00;;;;;;5053751;28;20260;-85
2021/04/21 04:08:03;;;;;;;14.27;10.97;;;4.80;77.10;;;;;;5054934;28;20210;-85
2021/04/21 04:10:34;;;;;;;12.10;9.97;;;4.80;77.20;;;;;;5053527;28;20199;-84
2021/04/21 04:13:03;;;;;;;15.93;11.30;;;4.80;77.10;;;;;;5054860;28;20164;-84
2021/04/21 04:15:30;;;;;;;15.53;11.23;;;4.80;77.00;;;;;;5053462;28;20204;-85
2021/04/21 04:17:57;;;;;;;14.20;10.40;;;4.70;77.20;;;;;;5055079;28;20173;-84
2021/04/21 04:20:24;;;;;;;15.10;10.33;;;4.60;77.90;;;;;;5054690;28;20196;-85
2021/04/21 04:22:51;;;;;;;18.87;11.87;;;4.60;77.90;;;;;;5054654;28;20173;-84
2021/04/21 04:25:18;;;;;;;14.10;9.73;;;4.60;78.30;;;;;;5054629;28;20181;-84
2021/04/21 04:27:45;;;;;;;14.07;10.80;;;4.60;78.40;;;;;;5053400;28;20183;-84
2021/04/21 04:30:13;;;;;;;16.07;11.47;;;4.70;78.10;;;;;;5054402;28;20196;-84
2021/04/21 04:32:41;;;;;;;15.30;9.73;;;4.80;78.00;;;;;;5054444;28;20255;-84
2021/04/21 04:35:08;;;;;;;15.47;10.80;;;4.90;77.70;;;;;;5053034;28;20688;-85
2021/04/21 04:37:38;;;;;;;18.13;10.53;;;5.00;77.00;;;;;;5054329;28;20172;-84
2021/04/21 04:40:09;;;;;;;15.53;10.43;;;5.00;76.70;;;;;;5054720;28;20294;-84
2021/04/21 04:42:36;;;;;;;15.63;10.80;;;5.00;76.40;;;;;;5054279;28;20156;-85
2021/04/21 04:45:04;;;;;;;14.60;10.83;;;5.10;76.30;;;;;;5052947;28;20186;-85
2021/04/21 04:47:36;;;;;;;15.17;11.53;;;5.20;76.50;;;;;;5052950;28;20177;-85
2021/04/21 04:50:16;;;;;;;14.73;11.73;;;5.30;76.70;;;;;;5054194;28;20196;-84
2021/04/21 04:52:44;;;;;;;19.83;12.17;;;5.30;76.80;;;;;;5054486;28;20196;-84
2021/04/21 04:55:13;;;;;;;19.00;13.00;;;5.40;77.20;;;;;;5052716;28;20203;-84
2021/04/21 04:57:41;;;;;;;20.33;13.93;;;5.60;78.20;;;;;;5053872;28;20268;-84
2021/04/21 05:00:11;;;;;;;18.43;14.47;;;5.80;78.70;;;;;;5053728;28;20202;-84
2021/04/21 05:02:43;;;;;;;20.70;14.07;;;6.00;78.80;;;;;;5053576;28;20168;-84
2021/04/21 05:05:10;;;;;;;20.73;14.63;;;6.20;78.60;;;;;;5052537;28;20187;-84
2021/04/21 05:07:46;;;;;;;17.00;13.57;;;6.10;80.10;;;;;;5053717;28;20172;-84
2021/04/21 05:10:34;;;;;;;18.20;14.87;;;6.20;79.30;;;;;;5053663;28;20234;-85
2021/04/21 05:13:03;;;;;;;18.23;13.90;;;6.20;78.90;;;;;;5053612;28;20170;-84
2021/04/21 05:15:37;;;;;;;29.93;15.60;;;5.90;80.20;;;;;;5053580;28;20546;-84
2021/04/21 05:18:22;;;;;;;22.73;15.60;;;5.80;81.00;;;;;;5053759;28;20199;-84
2021/04/21 05:21:24;;;;;;;24.17;16.60;;;5.70;82.60;;;;;;5052241;28;20196;-85
2021/04/21 05:24:14;;;;;;;22.27;15.97;;;5.80;83.20;;;;;;5053470;28;20214;-84
2021/04/21 05:27:09;;;;;;;27.57;19.30;;;5.80;83.60;;;;;;5053546;28;20165;-85
2021/04/21 05:29:58;;;;;;;23.57;18.60;;;5.90;83.60;;;;;;5052170;28;20196;-85
2021/04/21 05:32:54;;;;;;;27.67;18.53;;;5.90;83.70;;;;;;5053728;28;20161;-84
2021/04/21 05:35:41;;;;;;;27.70;18.73;;;6.00;84.90;;;;;;5052015;28;20674;-85
2021/04/21 05:38:40;;;;;;;26.20;18.83;;;6.20;86.20;;;;;;5053628;28;20199;-85
2021/04/21 05:41:48;;;;;;;25.13;18.50;;;6.30;86.80;;;;;;5052158;28;20200;-85
2021/04/21 05:44:53;;;;;;;25.87;19.60;;;6.30;86.70;;;;;;5051995;28;20211;-85
2021/04/21 05:47:49;;;;;;;28.70;19.27;;;6.40;86.80;;;;;;5052018;28;20175;-85
2021/04/21 05:50:55;;;;;;;25.37;19.27;;;6.50;86.90;;;;;;5051844;28;20204;-85
2021/04/21 05:53:39;;;;;;;28.23;19.23;;;6.60;87.20;;;;;;5051859;28;20176;-84
2021/04/21 05:56:36;;;;;;;26.70;19.37;;;6.70;87.30;;;;;;5053306;28;20219;-84
2021/04/21 05:59:32;;;;;;;26.73;18.47;;;6.80;87.50;;;;;;5053241;28;20177;-84
2021/04/21 06:02:00;;;;;;;30.60;21.43;;;6.80;86.90;;;;;;5052569;28;20229;-85
2021/04/21 06:04:25;;;;;;;25.83;19.73;;;6.80;86.80;;;;;;5051792;28;20221;-85
2021/04/21 06:07:08;;;;;;;25.47;18.93;;;7.00;87.60;;;;;;5052939;28;20207;-84
2021/04/21 06:09:34;;;;;;;27.83;18.93;;;7.20;87.60;;;;;;5051620;28;20210;-85
2021/04/21 06:12:15;;;;;;;23.30;18.40;;;7.20;87.10;;;;;;5052955;28;20630;-85
2021/04/21 06:14:43;;;;;;;25.13;18.30;;;7.20;87.20;;;;;;5052761;28;20231;-85
2021/04/21 06:17:09;;;;;;;29.43;18.87;;;7.30;86.90;;;;;;5052900;28;20183;-85
2021/04/21 06:19:35;;;;;;;25.80;17.97;;;7.30;86.90;;;;;;5053212;28;20193;-85
2021/04/21 06:22:01;;;;;;;25.10;18.07;;;7.40;86.60;;;;;;5054448;28;20663;-85
2021/04/21 06:24:29;;;;;;;29.50;19.20;;;7.50;86.50;;;;;;5052350;28;20213;-85
2021/04/21 06:27:08;;;;;;;29.00;19.23;;;7.60;86.60;;;;;;5051476;28;20233;-84
2021/04/21 06:29:35;;;;;;;23.53;17.63;;;7.70;86.90;;;;;;5052714;28;20563;-85
2021/04/21 06:32:03;;;;;;;26.00;16.07;;;7.90;86.90;;;;;;5051564;28;20179;-85
2021/04/21 06:34:29;;;;;;;23.10;17.37;;;7.80;85.70;;;;;;5052617;28;20537;-85
2021/04/21 06:36:58;;;;;;;27.17;17.50;;;7.90;85.30;;;;;;5053071;28;20210;-85
2021/04/21 06:39:25;;;;;;;24.07;17.07;;;8.00;85.60;;;;;;5052677;28;20218;-85
2021/04/21 06:41:58;;;;;;;22.10;15.10;;;8.20;85.40;;;;;;5052683;28;20178;-84
2021/04/21 06:44:42;;;;;;;21.20;16.23;;;8.20;84.30;;;;;;5051474;28;20206;-85
2021/04/21 06:47:09;;;;;;;26.60;16.73;;;8.30;84.00;;;;;;5051729;28;20541;-85
2021/04/21 06:49:35;;;;;;;26.50;16.07;;;8.30;83.80;;;;;;5052566;28;20210;-85
2021/04/21 06:52:14;;;;;;;23.37;15.57;;;8.30;84.00;;;;;;5051415;28;20180;-85
2021/04/21 06:54:40;;;;;;;23.47;15.90;;;8.50;83.70;;;;;;5051326;28;20203;-84
2021/04/21 06:57:06;;;;;;;21.07;15.37;;;8.50;83.10;;;;;;5051325;28;20179;-84
2021/04/21 06:59:31;;;;;;;29.93;16.70;;;8.70;83.00;;;;;;5052422;28;20218;-84
2021/04/21 07:01:57;;;;;;;27.87;17.43;;;8.70;82.70;;;;;;5053151;28;20555;-84
2021/04/21 07:04:23;;;;;;;25.70;18.00;;;8.80;82.70;;;;;;5052649;28;20528;-84
2021/04/21 07:06:51;;;;;;;23.43;17.60;;;8.80;82.60;;;;;;5052553;28;20691;-84
2021/04/21 07:09:21;;;;;;;25.07;17.90;;;8.80;82.70;;;;;;5052758;28;20203;-85
2021/04/21 07:11:59;;;;;;;30.57;20.93;;;8.90;83.00;;;;;;5051150;28;20188;-84
2021/04/21 07:14:27;;;;;;;29.43;20.63;;;9.00;83.50;;;;;;5056136;28;20198;-84
2021/04/21 07:16:54;;;;;;;33.00;23.33;;;9.10;83.50;;;;;;5055913;28;20179;-84
2021/04/21 07:19:26;;;;;;;33.33;24.07;;;9.20;83.80;;;;;;5055718;28;20257;-84
2021/04/21 07:21:53;;;;;;;33.43;24.80;;;9.40;84.30;;;;;;5052189;28;20544;-84
2021/04/21 07:24:28;;;;;;;49.53;31.27;;;9.50;84.20;;;;;;5056423;28;20176;-85
2021/04/21 07:26:55;;;;;;;47.57;34.37;;;9.70;84.00;;;;;;5055700;28;20183;-84
2021/04/21 07:29:25;;;;;;;47.77;33.63;;;9.70;84.10;;;;;;5055720;28;20246;-84
2021/04/21 07:31:52;;;;;;;54.20;37.47;;;9.80;83.80;;;;;;5054388;28;20656;-84
2021/04/21 07:34:38;;;;;;;49.17;35.03;;;9.80;83.70;;;;;;5054302;28;20207;-84
2021/04/21 07:37:04;;;;;;;46.37;30.40;;;9.50;83.50;;;;;;5055613;28;20172;-84
2021/04/21 07:39:36;;;;;;;50.73;33.27;;;9.30;83.30;;;;;;5055406;28;20196;-84
2021/04/21 07:42:04;;;;;;;49.87;34.50;;;9.20;83.70;;;;;;5054101;28;20176;-84
2021/04/21 07:44:37;;;;;;;48.07;32.57;;;9.30;83.90;;;;;;5054110;28;20230;-84
2021/04/21 07:47:06;;;;;;;43.07;32.17;;;9.30;84.20;;;;;;5054115;28;20267;-84
2021/04/21 07:49:37;;;;;;;45.07;32.47;;;9.30;84.30;;;;;;5055148;28;20196;-84
2021/04/21 07:52:04;;;;;;;48.13;32.50;;;9.30;84.30;;;;;;5055334;28;20180;-85
2021/04/21 07:54:31;;;;;;;49.40;32.87;;;9.30;84.20;;;;;;5055371;28;20636;-85
2021/04/21 07:57:09;;;;;;;48.30;33.10;;;9.40;84.10;;;;;;5053942;28;20202;-84
2021/04/21 07:59:43;;;;;;;44.73;30.90;;;9.40;83.70;;;;;;5053711;28;20211;-84
2021/04/21 08:02:13;;;;;;;46.30;33.00;;;9.40;83.60;;;;;;5053890;28;20261;-85
2021/04/21 08:04:48;;;;;;;49.07;33.83;;;9.40;83.80;;;;;;5053681;28;20184;-85
2021/04/21 08:07:34;;;;;;;44.57;30.97;;;9.50;83.80;;;;;;5053934;28;20184;-85
2021/04/21 08:10:03;;;;;;;45.87;31.13;;;9.50;83.60;;;;;;5053616;28;20199;-84
2021/04/21 08:12:31;;;;;;;45.47;30.23;;;9.60;83.80;;;;;;5054890;28;20541;-85
2021/04/21 08:15:00;;;;;;;45.47;29.97;;;9.70;83.40;;;;;;5053546;28;20238;-85
2021/04/21 08:17:26;;;;;;;47.33;30.57;;;9.70;83.10;;;;;;5053652;28;20573;-85
2021/04/21 08:19:58;;;;;;;49.33;31.73;;;9.70;83.20;;;;;;5054925;28;20249;-85
2021/04/21 08:22:27;;;;;;;44.23;29.97;;;9.80;83.50;;;;;;5054676;28;20251;-85
2021/04/21 08:24:54;;;;;;;49.30;28.50;;;9.90;83.50;;;;;;5052850;28;20304;-85
2021/04/21 08:27:21;;;;;;;40.53;27.13;;;10.10;83.20;;;;;;5054615;28;20256;-85
2021/04/21 08:29:47;;;;;;;37.77;27.90;;;10.20;82.50;;;;;;5054515;28;20203;-85
2021/04/21 08:32:24;;;;;;;36.27;26.47;;;10.20;82.00;;;;;;5054834;28;20186;-85
2021/04/21 08:34:52;;;;;;;32.53;24.53;;;10.10;82.00;;;;;;5054467;28;20184;-85
2021/04/21 08:37:19;;;;;;;32.53;22.60;;;10.20;81.40;;;;;;5054377;28;20226;-85
2021/04/21 08:39:45;;;;;;;32.50;23.43;;;10.30;80.50;;;;;;5054250;28;20189;-85
2021/04/21 08:42:12;;;;;;;33.50;22.87;;;10.30;80.00;;;;;;5054251;28;20187;-84
2021/04/21 08:44:42;;;;;;;34.37;22.23;;;10.70;80.20;;;;;;5054302;28;20561;-83
2021/04/21 08:47:15;;;;;;;30.63;20.73;;;11.00;79.20;;;;;;5054595;28;20653;-84
2021/04/21 08:49:42;;;;;;;33.97;22.37;;;11.30;78.70;;;;;;5052820;28;20644;-84
2021/04/21 08:52:10;;;;;;;33.37;19.83;;;11.10;76.80;;;;;;5054198;28;20179;-84
2021/04/21 08:54:36;;;;;;;37.40;23.30;;;11.10;76.20;;;;;;5053958;28;20346;-84
2021/04/21 08:57:02;;;;;;;36.00;22.87;;;11.20;77.70;;;;;;5054291;28;20297;-84
2021/04/21 08:59:28;;;;;;;33.37;18.47;;;11.30;76.70;;;;;;5053727;28;20208;-84
2021/04/21 09:01:55;;;;;;;29.47;21.47;;;11.40;75.40;;;;;;5052839;28;20168;-84
2021/04/21 09:04:21;;;;;;;30.37;21.63;;;11.30;76.10;;;;;;5052627;28;20188;-85
2021/04/21 09:06:47;;;;;;;31.93;20.50;;;11.10;75.80;;;;;;5052658;28;20180;-85
2021/04/21 09:09:17;;;;;;;24.97;18.30;;;11.30;76.30;;;;;;5053693;28;20610;-85
2021/04/21 09:11:44;;;;;;;30.80;19.97;;;11.10;74.70;;;;;;5053761;28;20183;-85
2021/04/21 09:14:10;;;;;;;28.47;18.93;;;11.00;74.70;;;;;;5052461;28;20672;-85
2021/04/21 09:16:36;;;;;;;29.33;19.33;;;11.00;75.10;;;;;;5053657;28;20198;-85
2021/04/21 09:19:22;;;;;;;23.13;16.77;;;10.80;75.30;;;;;;5053570;28;20252;-85
2021/04/21 09:22:03;;;;;;;18.70;14.03;;;10.50;75.00;;;;;;5052400;28;20188;-85
2021/04/21 09:24:28;;;;;;;21.20;13.23;;;10.60;75.30;;;;;;5054001;28;20247;-85
2021/04/21 09:26:54;;;;;;;17.40;12.77;;;10.30;75.10;;;;;;5052454;28;20218;-85
2021/04/21 09:29:38;;;;;;;18.67;11.40;;;10.40;75.60;;;;;;5053455;28;20195;-85
2021/04/21 09:32:09;;;;;;;15.50;11.17;;;10.30;75.10;;;;;;5052404;28;20179;-85
2021/04/21 09:34:36;;;;;;;15.23;8.80;;;10.30;76.00;;;;;;5053161;28;20186;-85
2021/04/21 09:37:02;;;;;;;14.70;8.80;;;10.50;75.70;;;;;;5053375;28;20176;-84
2021/04/21 09:39:27;;;;;;;17.23;8.97;;;10.70;74.50;;;;;;5052045;28;20677;-85
2021/04/21 09:42:01;;;;;;;16.53;8.53;;;10.80;74.50;;;;;;5053950;28;20172;-85
2021/04/21 09:44:30;;;;;;;10.87;7.13;;;11.00;73.60;;;;;;5053554;28;20172;-85
2021/04/21 09:47:08;;;;;;;12.90;6.20;;;11.00;72.20;;;;;;5053560;28;20637;-85
2021/04/21 09:49:39;;;;;;;13.03;6.23;;;11.00;71.00;;;;;;5051951;28;20218;-85
2021/04/21 09:52:11;;;;;;;11.43;6.27;;;10.80;71.00;;;;;;5052020;28;20597;-85
2021/04/21 09:54:41;;;;;;;14.00;5.97;;;10.80;71.60;;;;;;5051977;28;20192;-84
2021/04/21 09:57:12;;;;;;;9.83;6.03;;;10.70;71.20;;;;;;5051934;28;20179;-84
2021/04/21 09:59:38;;;;;;;13.07;5.97;;;10.70;71.70;;;;;;5051736;28;20629;-84
2021/04/21 10:02:24;;;;;;;9.97;4.70;;;10.70;71.90;;;;;;5053269;28;20568;-84
2021/04/21 10:04:50;;;;;;;9.17;3.83;;;10.80;71.00;;;;;;5053102;28;20180;-84
2021/04/21 10:07:19;;;;;;;9.33;4.83;;;10.50;70.30;;;;;;5053320;28;20516;-84
2021/04/21 10:09:57;;;;;;;12.10;3.80;;;10.80;71.20;;;;;;5052962;28;20274;-84
2021/04/21 10:12:36;;;;;;;12.73;3.43;;;11.00;68.80;;;;;;5052029;28;20233;-85
2021/04/21 10:15:05;;;;;;;5.43;3.23;;;11.00;68.30;;;;;;5052986;28;20179;-85
2021/04/21 10:17:34;;;;;;;7.87;2.70;;;11.50;68.90;;;;;;5051670;28;20172;-85
2021/04/21 10:20:02;;;;;;;9.23;2.57;;;11.80;64.90;;;;;;5053098;28;20626;-85
2021/04/21 10:22:27;;;;;;;5.97;2.20;;;11.80;63.00;;;;;;5053015;28;20222;-85
2021/04/21 10:24:54;;;;;;;7.20;2.40;;;11.70;63.20;;;;;;5053133;28;20183;-85
2021/04/21 10:27:20;;;;;;;10.73;2.60;;;11.60;64.30;;;;;;5052928;28;20547;-85
2021/04/21 10:29:46;;;;;;;7.13;2.13;;;11.40;64.40;;;;;;5052944;28;20196;-85
2021/04/21 10:32:15;;;;;;;11.10;2.40;;;11.50;64.50;;;;;;5052791;28;20604;-85
2021/04/21 10:34:44;;;;;;;9.03;2.03;;;11.40;64.40;;;;;;5051488;28;20242;-85
2021/04/21 10:37:11;;;;;;;9.40;2.40;;;11.30;63.60;;;;;;5051626;28;20199;-85
2021/04/21 10:39:38;;;;;;;8.33;2.60;;;11.20;64.10;;;;;;5052664;28;20241;-85
2021/04/21 10:42:16;;;;;;;8.33;2.13;;;11.30;64.70;;;;;;5052635;28;20180;-85
2021/04/21 10:44:46;;;;;;;9.37;2.47;;;11.70;61.80;;;;;;5051458;28;20718;-85
2021/04/21 10:47:24;;;;;;;11.40;2.50;;;11.90;60.70;;;;;;5054514;28;20186;-85
2021/04/21 10:50:00;;;;;;;10.90;2.30;;;12.20;59.70;;;;;;5055272;28;20286;-85
2021/04/21 10:52:25;;;;;;;11.17;2.30;;;12.20;60.10;;;;;;5055346;28;20213;-85
2021/04/21 10:54:54;;;;;;;8.40;2.27;;;11.90;59.30;;;;;;5056421;28;20196;-85
2021/04/21 10:57:24;;;;;;;5.83;2.20;;;12.10;56.90;;;;;;5055320;28;20637;-85
2021/04/21 11:00:13;;;;;;;8.77;2.63;;;12.00;57.30;;;;;;5054813;28;20736;-85
2021/04/21 11:05:10;;;;;;;8.13;2.27;;;12.10;56.20;;;;;;5056395;28;20199;-85
2021/04/21 11:07:37;;;;;;;11.83;2.37;;;12.30;56.60;;;;;;5054987;28;20183;-85
2021/04/21 11:10:04;;;;;;;10.17;3.27;;;12.70;57.80;;;;;;5056354;28;20207;-85
2021/04/21 11:12:52;;;;;;;11.03;2.20;;;12.70;57.60;;;;;;5056063;28;20558;-85
2021/04/21 11:15:40;;;;;;;8.53;2.50;;;12.30;58.20;;;;;;5056265;28;20230;-85
2021/04/21 11:18:12;;;;;;;20.53;3.77;;;12.50;59.60;;;;;;5054773;28;20309;-85
2021/04/21 11:20:46;;;;;;;10.13;2.27;;;12.70;57.10;;;;;;5054663;28;20235;-85
2021/04/21 11:23:55;;;;;;;9.13;1.97;;;12.60;54.90;;;;;;5054719;28;20179;-85
2021/04/21 11:26:23;;;;;;;10.47;2.30;;;11.90;56.40;;;;;;5054665;28;20175;-85
2021/04/21 11:29:34;;;;;;;3.40;1.10;;;12.50;56.50;;;;;;5054579;28;20194;-85
2021/04/21 11:32:00;;;;;;;10.30;2.60;;;12.30;52.60;;;;;;5054695;28;20679;-85
2021/04/21 11:34:29;;;;;;;15.00;3.03;;;12.40;56.60;;;;;;5054300;28;20207;-85
2021/04/21 11:37:13;;;;;;;11.60;2.40;;;12.80;55.20;;;;;;5055680;28;20634;-85
2021/04/21 11:42:21;;;;;;;9.20;2.40;;;12.50;54.00;;;;;;5056067;28;20180;-85
2021/04/21 11:44:50;;;;;;;21.27;3.77;;;12.50;53.90;;;;;;5054763;28;20168;-85
2021/04/21 11:47:38;;;;;;;6.47;1.67;;;12.50;56.10;;;;;;5055724;28;20250;-85
2021/04/21 11:50:19;;;;;;;12.37;2.60;;;12.50;53.70;;;;;;5055555;28;20282;-85
2021/04/21 11:52:58;;;;;;;9.13;2.33;;;12.20;52.70;;;;;;5054112;28;20172;-85
2021/04/21 11:55:35;;;;;;;7.70;2.20;;;12.00;52.80;;;;;;5055501;28;20546;-85
2021/04/21 11:58:29;;;;;;;12.63;2.60;;;12.10;53.60;;;;;;5054702;28;20182;-86
2021/04/21 12:01:02;;;;;;;10.53;2.27;;;12.30;53.70;;;;;;5054699;28;20747;-85
2021/04/21 12:03:32;;;;;;;12.47;2.97;;;12.50;52.70;;;;;;5055456;28;20204;-85
2021/04/21 12:06:04;;;;;;;12.30;3.53;;;12.40;51.90;;;;;;5053909;28;20176;-85
2021/04/21 12:08:33;;;;;;;10.93;3.00;;;12.70;52.00;;;;;;5053718;28;20211;-85
2021/04/21 12:11:00;;;;;;;18.90;2.97;;;12.70;51.30;;;;;;5053735;28;20299;-85
2021/04/21 12:13:31;;;;;;;6.20;2.40;;;12.50;53.70;;;;;;5055117;28;20176;-85
2021/04/21 12:16:09;;;;;;;9.53;2.50;;;12.80;51.00;;;;;;5053588;28;20203;-85
2021/04/21 12:18:43;;;;;;;18.23;3.83;;;13.00;51.10;;;;;;5054768;28;20182;-85
2021/04/21 12:21:14;;;;;;;12.70;3.37;;;12.80;50.30;;;;;;5054685;28;20223;-85
2021/04/21 12:23:41;;;;;;;12.37;2.80;;;12.80;49.40;;;;;;5053499;28;20180;-85
2021/04/21 12:26:18;;;;;;;11.70;2.43;;;13.30;48.70;;;;;;5053353;28;20214;-85
2021/04/21 12:28:46;;;;;;;8.67;2.20;;;13.50;47.70;;;;;;5053310;28;20680;-85
2021/04/21 12:31:12;;;;;;;15.37;3.00;;;13.10;44.80;;;;;;5053314;28;20196;-85
2021/04/21 12:33:37;;;;;;;7.87;2.23;;;12.90;48.40;;;;;;5054532;28;20180;-85
2021/04/21 12:36:04;;;;;;;7.30;2.33;;;12.80;40.80;;;;;;5054420;28;20558;-85
2021/04/21 12:38:32;;;;;;;6.63;2.00;;;12.60;43.60;;;;;;5053119;28;20179;-85
2021/04/21 12:41:00;;;;;;;9.07;2.97;;;13.10;44.70;;;;;;5054407;28;20188;-85
2021/04/21 12:43:29;;;;;;;10.47;2.60;;;12.90;44.80;;;;;;5053063;28;20649;-85
2021/04/21 12:46:22;;;;;;;10.47;2.53;;;12.40;45.10;;;;;;5053112;28;20271;-85
2021/04/21 12:48:50;;;;;;;15.93;3.83;;;12.90;47.80;;;;;;5054290;28;20175;-85
2021/04/21 12:51:29;;;;;;;10.87;3.03;;;12.80;46.60;;;;;;5054327;28;20187;-85
2021/04/21 12:53:55;;;;;;;14.57;4.07;;;12.80;49.30;;;;;;5054602;28;20258;-85
2021/04/21 12:56:21;;;;;;;13.63;3.33;;;13.00;47.80;;;;;;5052707;28;20614;-85
2021/04/21 12:58:47;;;;;;;9.73;2.50;;;12.80;46.90;;;;;;5053102;28;20218;-85
2021/04/21 13:01:21;;;;;;;10.83;2.83;;;13.20;47.10;;;;;;5052776;28;20286;-85
2021/04/21 13:03:56;;;;;;;11.03;2.63;;;12.90;47.40;;;;;;5054134;28;20195;-86
2021/04/21 13:06:38;;;;;;;14.77;2.93;;;13.20;45.50;;;;;;5052682;28;20229;-85
2021/04/21 13:09:08;;;;;;;9.43;2.60;;;12.90;45.20;;;;;;5053780;28;20176;-85
2021/04/21 13:11:34;;;;;;;12.23;3.17;;;13.20;47.00;;;;;;5053739;28;20172;-85
2021/04/21 13:14:00;;;;;;;11.20;2.73;;;13.20;47.20;;;;;;5054843;28;20176;-85